Mission Field
KLVM : now visible

Airfield :











YOU CAN JOIN US ON...

 
LOGIN :

Register | Disclaimer

   EN    FR    IT 

 









Legend :    VFR   Marginal VFR   IFR   Intensive IFR   Very Intensive IFR
Visi :
Ceiling :
>= 8 km
>= 3000ft
5 to 8 km
1000 to 3000 ft
1500m to 5 km
500 to 1000 ft
800 to 1500m
200 to 500 ft
< 800m
< 200 ft
Symbols :   Thunderstorms  Fog  Heavy snow  Heavy precipitations  Wind > 20 kt






- Airport Elevation : 4660 ft


KLVM - Mission Field

CURRENT METAR :
  • 162153Z AUTO 25017KT 10SM OVC070 09/M04 A3018 RMK AO2 SLP214 T00941039

EXPIRED METARs :
  • 162053Z AUTO 25014KT 10SM BKN065 09/M05 A3019 RMK AO2 SLP218 T00891050 55002
  • 161953Z AUTO 25018G27KT 10SM OVC060 09/M04 A3018 RMK AO2 PK WND 24027/1946 SLP212 T00941044

TAF KLVM
Valid from the 16 at 20:00 until the 17 at 18:00 UTC


162006Z 1620/1718 27015G25KT P6SM VCSH BKN050
FM162300 27014KT P6SM SCT060 SCT150
FM170300 25016G24KT P6SM BKN200
FM170600 23025G37KT P6SM SCT090 BKN200
FM171000 23030G42KT P6SM SCT050 BKN100
FM171500 23032G46KT P6SM VCSH BKN040 OVC080



MET'MAP, your aeronautical weather chart ! - Copyright ORBIFLY December 2007 - Disclaimer

ORBIFLY MET'MAP TEAM :

Programming & Development : Alexandra Zaïnal
Concept & Development : Baudouin d'Aumeries
Co-Development & Prog : Marc-Olivier Méhu
Technical & hardware support : Manuel Goepfert

Contact : metmap@orbifly.com




SOURCES & CREDITS :

   NOAA       Earth
Advisory